createdAt,value
2023-05-21T00:01:30.369Z,38.83
2023-05-21T00:04:00.100Z,42.13
2023-05-21T00:06:28.590Z,36.78
2023-05-21T00:08:56.923Z,39.88
2023-05-21T00:11:25.366Z,39.60
2023-05-21T00:13:53.574Z,40.53
2023-05-21T00:16:22.313Z,36.42
2023-05-21T00:18:54.635Z,43.60
2023-05-21T00:21:23.323Z,38.95
2023-05-21T00:23:51.531Z,37.33
2023-05-21T00:26:19.815Z,39.08
2023-05-21T00:28:48.000Z,48.15
2023-05-21T00:31:17.349Z,45.40
2023-05-21T00:33:45.649Z,48.80
2023-05-21T00:36:15.612Z,42.42
2023-05-21T00:38:45.906Z,43.28
2023-05-21T00:41:14.610Z,52.97
2023-05-21T00:43:44.644Z,49.13
2023-05-21T00:46:16.813Z,49.63
2023-05-21T00:48:46.490Z,48.88
2023-05-21T00:51:18.709Z,45.72
2023-05-21T00:53:47.934Z,45.22
2023-05-21T00:56:16.166Z,47.15
2023-05-21T00:58:44.500Z,43.22
2023-05-21T01:01:14.222Z,43.67
2023-05-21T01:03:43.414Z,44.15
2023-05-21T01:06:14.161Z,46.63
2023-05-21T01:08:44.274Z,45.97
2023-05-21T01:11:12.966Z,51.05
2023-05-21T01:13:43.351Z,43.17
2023-05-21T01:16:13.693Z,50.13
2023-05-21T01:18:43.817Z,43.50
2023-05-21T01:21:12.506Z,47.85
2023-05-21T01:23:42.250Z,50.17
2023-05-21T01:26:13.123Z,52.22
2023-05-21T01:28:42.265Z,53.58
2023-05-21T01:31:20.793Z,46.45
2023-05-21T01:33:51.365Z,50.50
2023-05-21T01:36:26.437Z,44.93
2023-05-21T01:39:02.194Z,48.28
2023-05-21T01:41:33.458Z,57.00
2023-05-21T01:44:03.456Z,49.53
2023-05-21T01:46:34.752Z,48.97
2023-05-21T01:49:04.054Z,49.45
2023-05-21T01:51:32.730Z,42.45
2023-05-21T01:54:02.871Z,40.22
2023-05-21T01:56:34.087Z,42.63
2023-05-21T01:59:02.378Z,39.40
2023-05-21T02:01:30.795Z,30.83
2023-05-21T02:03:59.537Z,28.48
2023-05-21T02:06:27.928Z,29.38
2023-05-21T02:08:56.723Z,29.52
2023-05-21T02:11:26.479Z,34.55
2023-05-21T02:13:54.748Z,31.88
2023-05-21T02:16:22.948Z,37.50
2023-05-21T02:18:53.871Z,41.95
2023-05-21T02:21:22.307Z,44.95
2023-05-21T02:23:50.647Z,38.72
2023-05-21T02:26:19.002Z,42.38
2023-05-21T02:28:48.761Z,52.67
2023-05-21T02:31:17.120Z,51.38
2023-05-21T02:33:45.324Z,50.63
2023-05-21T02:36:15.529Z,52.50
2023-05-21T02:38:43.979Z,48.83
2023-05-21T02:41:12.547Z,46.53
2023-05-21T02:43:41.125Z,58.83
2023-05-21T02:46:10.741Z,51.10
2023-05-21T02:48:38.988Z,50.28
2023-05-21T02:51:07.351Z,45.65
2023-05-21T02:53:35.912Z,53.63
2023-05-21T02:56:04.226Z,42.95
2023-05-21T02:58:33.425Z,44.03
2023-05-21T03:01:01.736Z,42.55
2023-05-21T03:03:32.601Z,43.08
2023-05-21T03:06:00.977Z,44.38
2023-05-21T03:08:29.126Z,47.30
2023-05-21T03:10:57.428Z,47.17
2023-05-21T03:13:25.738Z,46.33
2023-05-21T03:15:56.574Z,55.70
2023-05-21T03:18:25.342Z,53.60
2023-05-21T03:20:54.932Z,44.30
2023-05-21T03:23:23.279Z,54.40
2023-05-21T03:25:52.131Z,40.90
2023-05-21T03:28:20.457Z,49.72
2023-05-21T03:30:49.785Z,49.47
2023-05-21T03:33:18.600Z,44.83
2023-05-21T03:35:47.096Z,38.75
2023-05-21T03:38:16.734Z,39.03
2023-05-21T03:40:45.107Z,37.38
2023-05-21T03:43:13.275Z,41.35
2023-05-21T03:45:44.211Z,37.60
2023-05-21T03:48:12.780Z,36.33
2023-05-21T03:50:41.629Z,45.70
2023-05-21T03:53:10.964Z,36.72
2023-05-21T03:55:40.659Z,45.45
2023-05-21T03:58:09.698Z,40.60
2023-05-21T04:00:38.302Z,40.75
2023-05-21T04:03:07.346Z,39.55
2023-05-21T04:05:35.984Z,35.10
2023-05-21T04:08:04.533Z,33.95
2023-05-21T04:10:32.782Z,33.58
2023-05-21T04:13:02.499Z,37.63
2023-05-21T04:15:30.690Z,40.97
2023-05-21T04:17:59.020Z,39.20
2023-05-21T04:20:27.170Z,35.40
2023-05-21T04:22:55.483Z,39.45
2023-05-21T04:25:23.969Z,39.78
2023-05-21T04:27:52.725Z,36.83
2023-05-21T04:30:24.228Z,44.55
2023-05-21T04:32:52.894Z,38.58
2023-05-21T04:35:21.216Z,43.45
2023-05-21T04:37:49.393Z,37.10
2023-05-21T04:40:18.463Z,38.65
2023-05-21T04:42:48.528Z,37.75
2023-05-21T04:45:17.864Z,36.33
2023-05-21T04:47:48.033Z,41.47
2023-05-21T04:50:16.344Z,44.75
2023-05-21T04:52:45.713Z,37.72
2023-05-21T04:55:14.006Z,37.95
2023-05-21T04:57:42.223Z,35.92
2023-05-21T05:00:11.764Z,30.02
2023-05-21T05:02:40.201Z,32.47
2023-05-21T05:05:10.733Z,31.33
2023-05-21T05:07:38.992Z,29.05
2023-05-21T05:10:08.247Z,31.63
2023-05-21T05:12:36.518Z,30.60
2023-05-21T05:15:05.233Z,29.95
2023-05-21T05:17:34.895Z,31.17
2023-05-21T05:20:03.862Z,27.67
2023-05-21T05:22:33.576Z,26.30
2023-05-21T05:25:01.799Z,28.40
2023-05-21T05:27:30.030Z,24.27
2023-05-21T05:29:58.358Z,24.88
2023-05-21T05:32:26.600Z,22.55
2023-05-21T05:34:54.937Z,21.17
2023-05-21T05:37:23.277Z,19.77
2023-05-21T05:39:53.192Z,18.50
2023-05-21T05:42:21.415Z,16.58
2023-05-21T05:44:49.698Z,13.27
2023-05-21T05:47:18.284Z,15.20
2023-05-21T05:49:46.486Z,14.65
2023-05-21T05:52:14.897Z,16.45
2023-05-21T05:54:43.262Z,16.25
2023-05-21T05:57:13.066Z,13.68
2023-05-21T05:59:41.349Z,10.63
2023-05-21T06:02:09.690Z,11.90
2023-05-21T06:04:37.933Z,14.35
2023-05-21T06:07:06.617Z,12.40
2023-05-21T06:09:34.928Z,12.45
2023-05-21T06:12:03.269Z,10.95
2023-05-21T06:14:32.962Z,10.73
2023-05-21T06:17:01.252Z,13.15
2023-05-21T06:19:29.863Z,13.55
2023-05-21T06:21:58.291Z,21.95
2023-05-21T06:24:26.929Z,21.70
2023-05-21T06:26:55.873Z,27.02
2023-05-21T06:29:24.135Z,30.05
2023-05-21T06:31:53.772Z,30.45
2023-05-21T06:34:22.029Z,45.63
2023-05-21T06:36:50.252Z,35.25
2023-05-21T06:39:18.417Z,38.50
2023-05-21T06:41:46.786Z,33.95
2023-05-21T06:44:16.401Z,38.20
2023-05-21T06:46:44.593Z,39.70
2023-05-21T06:49:15.225Z,41.42
2023-05-21T06:51:43.523Z,38.88
2023-05-21T06:54:11.734Z,39.78
2023-05-21T06:56:39.951Z,37.80
2023-05-21T06:59:08.221Z,37.53
2023-05-21T07:01:36.562Z,36.58
2023-05-21T07:04:04.915Z,35.30
2023-05-21T07:06:35.149Z,40.35
2023-05-21T07:09:03.618Z,32.10
2023-05-21T07:11:32.471Z,30.42
2023-05-21T07:14:01.778Z,29.50
2023-05-21T07:16:30.173Z,34.03
2023-05-21T07:18:58.389Z,34.00
2023-05-21T07:21:26.663Z,26.67
2023-05-21T07:23:56.853Z,22.63
2023-05-21T07:26:26.386Z,31.30
2023-05-21T07:28:54.672Z,23.85
2023-05-21T07:31:23.089Z,24.33
2023-05-21T07:33:51.341Z,28.80
2023-05-21T07:36:19.669Z,44.13
2023-05-21T07:38:47.856Z,35.05
2023-05-21T07:41:18.833Z,35.65
2023-05-21T07:43:47.313Z,31.38
2023-05-21T07:46:15.630Z,35.08
2023-05-21T07:48:44.165Z,33.38
2023-05-21T07:51:12.821Z,28.70
2023-05-21T07:53:41.239Z,30.88
2023-05-21T07:56:09.733Z,32.35
2023-05-21T07:58:39.562Z,23.90
2023-05-21T08:01:07.814Z,31.23
2023-05-21T08:03:36.140Z,24.13
2023-05-21T08:06:04.967Z,32.22
2023-05-21T08:08:33.280Z,30.83
2023-05-21T08:11:01.993Z,30.27
2023-05-21T08:13:30.255Z,26.42
2023-05-21T08:16:00.036Z,28.08
2023-05-21T08:18:28.675Z,32.15
2023-05-21T08:20:56.893Z,32.50
2023-05-21T08:23:25.138Z,41.25
2023-05-21T08:25:53.785Z,38.75
2023-05-21T08:28:23.349Z,31.60
2023-05-21T08:30:51.609Z,39.08
2023-05-21T08:33:21.647Z,41.85
2023-05-21T08:35:50.009Z,48.92
2023-05-21T08:38:18.257Z,39.13
2023-05-21T08:40:47.915Z,36.15
2023-05-21T08:43:17.409Z,43.58
2023-05-21T08:45:47.972Z,36.80
2023-05-21T08:48:17.922Z,39.10
2023-05-21T08:50:48.190Z,35.10
2023-05-21T08:53:27.357Z,37.28
2023-05-21T08:55:57.574Z,43.75
2023-05-21T08:58:26.160Z,38.55
2023-05-21T09:00:56.328Z,36.72
2023-05-21T09:03:25.521Z,39.63
2023-05-21T09:05:55.526Z,43.70
2023-05-21T09:08:31.308Z,40.83
2023-05-21T09:10:59.558Z,39.85
2023-05-21T09:13:28.786Z,38.63
2023-05-21T09:15:57.540Z,34.28
2023-05-21T09:18:27.614Z,27.75
2023-05-21T09:20:57.807Z,25.15
2023-05-21T09:23:26.087Z,28.15
2023-05-21T09:25:54.469Z,23.65
2023-05-21T09:28:23.371Z,22.75
2023-05-21T09:30:54.455Z,22.48
2023-05-21T09:33:27.020Z,28.58
2023-05-21T09:35:56.949Z,26.05
2023-05-21T09:38:26.031Z,32.22
2023-05-21T09:40:56.818Z,36.00
2023-05-21T09:43:25.328Z,37.55
2023-05-21T09:45:56.126Z,32.13
2023-05-21T09:48:43.297Z,34.67
2023-05-21T09:51:16.265Z,30.42
2023-05-21T09:53:46.098Z,20.90
2023-05-21T09:56:14.429Z,16.60
2023-05-21T09:58:42.813Z,17.17
2023-05-21T10:01:12.527Z,18.17
2023-05-21T10:03:41.702Z,17.42
2023-05-21T10:06:10.649Z,18.88
2023-05-21T10:08:46.266Z,19.83
2023-05-21T10:11:15.657Z,25.65
2023-05-21T10:13:50.396Z,23.20
2023-05-21T10:16:19.500Z,26.33
2023-05-21T10:18:49.753Z,31.50
2023-05-21T10:21:19.501Z,21.63
2023-05-21T10:23:50.078Z,25.38
2023-05-21T10:26:19.890Z,27.23
2023-05-21T10:28:48.201Z,26.77
2023-05-21T10:31:16.819Z,23.58
2023-05-21T10:33:45.150Z,24.48
2023-05-21T10:36:14.020Z,28.52
2023-05-21T10:38:43.707Z,26.58
2023-05-21T10:41:14.564Z,38.55
2023-05-21T10:43:51.904Z,31.55
2023-05-21T10:46:49.871Z,28.95
2023-05-21T10:49:39.863Z,26.35
2023-05-21T10:52:16.901Z,25.17
2023-05-21T10:55:17.867Z,28.20
2023-05-21T10:58:12.260Z,26.10
2023-05-21T11:00:40.992Z,25.63
2023-05-21T11:03:10.102Z,27.25
2023-05-21T11:05:42.362Z,22.90
2023-05-21T11:08:27.606Z,23.98
2023-05-21T11:10:58.338Z,21.88
2023-05-21T11:13:31.442Z,21.30
2023-05-21T11:16:09.386Z,22.73
2023-05-21T11:19:02.911Z,23.73
2023-05-21T11:21:35.125Z,20.35
2023-05-21T11:24:06.667Z,23.08
2023-05-21T11:27:07.152Z,23.08
2023-05-21T11:29:41.840Z,17.63
2023-05-21T11:32:10.820Z,30.17
2023-05-21T11:34:40.883Z,21.08
2023-05-21T11:37:30.421Z,21.80
2023-05-21T11:40:00.433Z,23.80
2023-05-21T11:42:34.125Z,23.73
2023-05-21T11:45:04.884Z,26.95
2023-05-21T11:47:34.049Z,23.23
2023-05-21T11:50:03.732Z,29.67
2023-05-21T11:52:33.283Z,24.77
2023-05-21T11:55:01.763Z,29.67
2023-05-21T11:57:32.065Z,24.73
2023-05-21T12:00:01.618Z,22.08
2023-05-21T12:02:33.188Z,21.45
2023-05-21T12:07:31.381Z,21.38
2023-05-21T12:10:00.206Z,16.05
2023-05-21T12:12:35.553Z,18.75
2023-05-21T12:15:15.063Z,17.85
2023-05-21T12:17:44.824Z,17.48
2023-05-21T12:20:17.251Z,30.80
2023-05-21T12:22:45.998Z,18.75
2023-05-21T12:25:14.171Z,27.08
2023-05-21T12:27:45.231Z,21.90
2023-05-21T12:30:13.908Z,23.10
2023-05-21T12:32:44.322Z,21.58
2023-05-21T12:35:24.273Z,23.87
2023-05-21T12:37:53.306Z,23.75
2023-05-21T12:40:22.479Z,29.25
2023-05-21T12:42:51.776Z,26.35
2023-05-21T12:45:22.811Z,26.30
2023-05-21T12:47:56.509Z,24.88
2023-05-21T12:50:26.483Z,30.48
2023-05-21T12:53:00.133Z,25.60
2023-05-21T12:55:28.696Z,26.52
2023-05-21T12:58:05.188Z,24.98
2023-05-21T13:00:33.893Z,30.35
2023-05-21T13:03:02.338Z,22.50
2023-05-21T13:05:32.563Z,22.70
2023-05-21T13:08:00.817Z,22.23
2023-05-21T13:10:29.225Z,21.55
2023-05-21T13:12:57.536Z,24.17
2023-05-21T13:15:25.737Z,27.80
2023-05-21T13:17:56.550Z,25.13
2023-05-21T13:20:27.793Z,26.77
2023-05-21T13:22:57.549Z,27.85
2023-05-21T13:25:29.139Z,22.58
2023-05-21T13:27:58.674Z,24.27
2023-05-21T13:30:27.062Z,25.33
2023-05-21T13:32:55.755Z,22.58
2023-05-21T13:35:25.265Z,19.33
2023-05-21T13:37:53.463Z,15.15
2023-05-21T13:40:23.998Z,14.35
2023-05-21T13:42:52.372Z,14.83
2023-05-21T13:45:21.817Z,17.67
2023-05-21T13:47:50.240Z,18.17
2023-05-21T13:50:18.658Z,17.23
2023-05-21T13:52:47.286Z,14.05
2023-05-21T13:55:16.165Z,20.40
2023-05-21T13:57:46.998Z,18.95
2023-05-21T14:00:16.328Z,16.73
2023-05-21T14:02:45.329Z,14.90
2023-05-21T14:05:13.913Z,16.23
2023-05-21T14:07:42.986Z,15.50
2023-05-21T14:10:11.942Z,14.15
2023-05-21T14:12:40.884Z,13.50
2023-05-21T14:15:12.099Z,14.90
2023-05-21T14:17:42.507Z,15.07
2023-05-21T14:20:12.130Z,14.27
2023-05-21T14:22:40.374Z,12.93
2023-05-21T14:25:09.034Z,18.67
2023-05-21T14:27:38.610Z,11.93
2023-05-21T14:30:08.008Z,10.48
2023-05-21T14:32:37.753Z,11.98
2023-05-21T14:35:06.959Z,9.25
2023-05-21T14:37:35.182Z,11.55
2023-05-21T14:40:05.473Z,8.25
2023-05-21T14:42:33.739Z,7.97
2023-05-21T14:45:17.566Z,11.65
2023-05-21T14:47:50.104Z,20.85
2023-05-21T14:50:20.314Z,17.65
2023-05-21T14:52:48.543Z,11.32
2023-05-21T14:55:18.615Z,11.48
2023-05-21T14:57:46.948Z,14.02
2023-05-21T15:00:15.699Z,10.27
2023-05-21T15:02:44.144Z,11.15
2023-05-21T15:05:13.969Z,13.45
2023-05-21T15:07:42.271Z,10.70
2023-05-21T15:10:11.053Z,9.40
2023-05-21T15:12:39.513Z,7.47
2023-05-21T15:15:08.495Z,7.50
2023-05-21T15:17:37.308Z,11.70
2023-05-21T15:20:06.448Z,8.88
2023-05-21T15:22:36.339Z,7.13
2023-05-21T15:25:05.843Z,7.57
2023-05-21T15:27:34.279Z,7.85
2023-05-21T15:30:03.348Z,8.23
2023-05-21T15:32:32.159Z,7.60
2023-05-21T15:35:00.637Z,12.07
2023-05-21T15:37:32.244Z,6.53
2023-05-21T15:40:02.181Z,7.50
2023-05-21T15:42:31.956Z,8.85
2023-05-21T15:45:00.313Z,7.47
2023-05-21T15:47:28.853Z,10.20
2023-05-21T15:49:58.870Z,8.07
2023-05-21T15:52:27.320Z,9.23
2023-05-21T15:54:55.790Z,5.88
2023-05-21T15:57:25.463Z,6.93
2023-05-21T15:59:53.576Z,7.03
2023-05-21T16:02:21.998Z,9.52
2023-05-21T16:04:52.184Z,8.52
2023-05-21T16:07:21.105Z,8.70
2023-05-21T16:09:49.302Z,6.95
2023-05-21T16:12:17.687Z,9.02
2023-05-21T16:14:50.042Z,6.82
2023-05-21T16:17:18.555Z,8.32
2023-05-21T16:19:47.610Z,6.35
2023-05-21T16:22:16.190Z,11.10
2023-05-21T16:24:44.312Z,5.50
2023-05-21T16:27:12.540Z,5.03
2023-05-21T16:29:41.100Z,9.80
2023-05-21T16:32:13.063Z,5.47
2023-05-21T16:34:41.552Z,7.57
2023-05-21T16:37:09.992Z,8.45
2023-05-21T16:39:38.615Z,7.78
2023-05-21T16:42:07.314Z,7.97
2023-05-21T16:44:37.119Z,6.40
2023-05-21T16:47:05.927Z,6.70
2023-05-21T16:49:35.538Z,8.35
2023-05-21T16:52:04.080Z,6.75
2023-05-21T16:54:32.303Z,7.50
2023-05-21T16:57:00.702Z,8.65
2023-05-21T16:59:29.551Z,5.82
2023-05-21T17:01:57.849Z,5.63
2023-05-21T17:04:26.181Z,10.05
2023-05-21T17:06:55.834Z,9.27
2023-05-21T17:09:24.163Z,9.55
2023-05-21T17:11:52.339Z,9.05
2023-05-21T17:14:33.206Z,13.02
2023-05-21T17:17:02.292Z,9.20
2023-05-21T17:19:30.877Z,9.98
2023-05-21T17:22:00.763Z,15.68
2023-05-21T17:24:29.012Z,11.02
2023-05-21T17:26:57.179Z,15.10
2023-05-21T17:29:25.399Z,13.35
2023-05-21T17:31:53.962Z,7.60
2023-05-21T17:34:24.658Z,8.07
2023-05-21T17:36:52.965Z,9.00
2023-05-21T17:39:22.777Z,8.10
2023-05-21T17:41:51.285Z,10.23
2023-05-21T17:44:20.790Z,8.80
2023-05-21T17:46:50.672Z,10.23
2023-05-21T17:49:19.447Z,5.15
2023-05-21T17:51:48.153Z,5.85
2023-05-21T17:54:16.596Z,6.35
2023-05-21T17:56:46.639Z,6.90
2023-05-21T17:59:16.073Z,5.20
2023-05-21T18:01:44.275Z,6.45
2023-05-21T18:04:13.408Z,8.73
2023-05-21T18:06:41.730Z,6.53
2023-05-21T18:09:10.679Z,5.15
2023-05-21T18:11:38.993Z,3.00
2023-05-21T18:14:08.570Z,4.57
2023-05-21T18:16:36.802Z,4.70
2023-05-21T18:19:06.832Z,5.72
2023-05-21T18:21:35.681Z,7.40
2023-05-21T18:24:04.243Z,3.28
2023-05-21T18:26:32.459Z,3.70
2023-05-21T18:29:01.234Z,8.27
2023-05-21T18:31:30.920Z,4.25
2023-05-21T18:33:59.382Z,4.90
2023-05-21T18:36:27.796Z,5.53
2023-05-21T18:38:56.031Z,8.90
2023-05-21T18:41:24.918Z,7.63
2023-05-21T18:43:53.254Z,9.75
2023-05-21T18:46:21.838Z,8.13
2023-05-21T18:48:51.654Z,4.05
2023-05-21T18:51:20.050Z,9.43
2023-05-21T18:53:49.152Z,7.22
2023-05-21T18:56:17.382Z,7.13
2023-05-21T18:58:46.027Z,5.07
2023-05-21T19:01:14.436Z,8.20
2023-05-21T19:03:42.796Z,17.00
2023-05-21T19:06:12.482Z,11.65
2023-05-21T19:08:41.450Z,8.15
2023-05-21T19:11:09.736Z,4.78
2023-05-21T19:13:38.237Z,6.07
2023-05-21T19:16:11.074Z,9.82
2023-05-21T19:18:42.819Z,4.80
2023-05-21T19:21:13.532Z,5.18
2023-05-21T19:23:51.770Z,8.07
2023-05-21T19:26:21.951Z,5.30
2023-05-21T19:28:53.452Z,7.00
2023-05-21T19:31:22.856Z,10.73
2023-05-21T19:33:51.346Z,3.83
2023-05-21T19:36:22.100Z,7.45
2023-05-21T19:38:51.118Z,5.57
2023-05-21T19:41:20.205Z,7.78
2023-05-21T19:43:48.421Z,8.55
2023-05-21T19:46:20.020Z,4.93
2023-05-21T19:48:49.071Z,8.75
2023-05-21T19:51:18.064Z,8.80
2023-05-21T19:53:47.778Z,9.68
2023-05-21T19:56:16.255Z,8.13
2023-05-21T19:58:47.266Z,8.00
2023-05-21T20:01:16.120Z,5.20
2023-05-21T20:03:45.653Z,4.43
2023-05-21T20:06:15.561Z,8.77
2023-05-21T20:08:43.848Z,7.97
2023-05-21T20:11:13.515Z,7.75
2023-05-21T20:13:42.554Z,3.33
2023-05-21T20:16:12.818Z,8.00
2023-05-21T20:18:41.861Z,5.80
2023-05-21T20:21:10.692Z,8.98
2023-05-21T20:23:38.902Z,9.77
2023-05-21T20:26:07.331Z,7.28
2023-05-21T20:28:37.511Z,3.78
2023-05-21T20:31:06.239Z,7.85
2023-05-21T20:33:43.475Z,3.63
2023-05-21T20:36:13.444Z,6.22
2023-05-21T20:38:42.231Z,5.55
2023-05-21T20:41:10.639Z,5.00
2023-05-21T20:43:40.465Z,12.10
2023-05-21T20:46:08.733Z,18.10
2023-05-21T20:48:37.937Z,8.98
2023-05-21T20:51:06.953Z,5.68
2023-05-21T20:53:35.342Z,7.57
2023-05-21T20:56:08.376Z,9.52
2023-05-21T20:58:36.637Z,6.35
2023-05-21T21:01:06.268Z,8.02
2023-05-21T21:03:35.181Z,9.10
2023-05-21T21:06:04.488Z,7.95
2023-05-21T21:08:34.783Z,8.88
2023-05-21T21:11:03.001Z,8.48
2023-05-21T21:13:31.267Z,7.05
2023-05-21T21:15:59.518Z,7.05
2023-05-21T21:18:29.198Z,7.63
2023-05-21T21:20:57.531Z,7.38
2023-05-21T21:23:26.341Z,10.30
2023-05-21T21:25:54.661Z,16.05
2023-05-21T21:28:22.904Z,7.75
2023-05-21T21:30:51.217Z,7.47
2023-05-21T21:33:19.471Z,8.43
2023-05-21T21:35:49.162Z,9.35
2023-05-21T21:38:17.481Z,8.10
2023-05-21T21:40:45.798Z,10.35
2023-05-21T21:43:14.142Z,4.97
2023-05-21T21:45:42.561Z,9.65
2023-05-21T21:48:11.687Z,6.57
2023-05-21T21:50:40.568Z,6.20
2023-05-21T21:53:12.751Z,5.70
2023-05-21T21:55:40.959Z,9.45
2023-05-21T21:58:09.264Z,6.07
2023-05-21T22:00:37.972Z,8.15
2023-05-21T22:03:06.417Z,5.22
2023-05-21T22:05:34.555Z,7.95
2023-05-21T22:08:04.143Z,9.73
2023-05-21T22:10:38.281Z,8.95
2023-05-21T22:13:06.824Z,7.60
2023-05-21T22:15:35.233Z,9.25
2023-05-21T22:18:03.566Z,10.30
2023-05-21T22:20:33.200Z,9.15
2023-05-21T22:23:01.812Z,6.25
2023-05-21T22:25:30.092Z,8.18
2023-05-21T22:27:59.703Z,9.10
2023-05-21T22:30:27.969Z,5.80
2023-05-21T22:32:56.883Z,6.32
2023-05-21T22:35:25.433Z,8.07
2023-05-21T22:37:53.709Z,8.30
2023-05-21T22:40:21.858Z,9.48
2023-05-21T22:42:50.088Z,3.22
2023-05-21T22:45:21.761Z,6.95
2023-05-21T22:50:20.256Z,4.80
2023-05-21T22:52:48.546Z,3.85
2023-05-21T22:55:17.261Z,4.95
2023-05-21T22:57:46.020Z,4.75
2023-05-21T23:00:14.703Z,8.80
2023-05-21T23:02:44.298Z,12.30
2023-05-21T23:05:12.564Z,7.30
2023-05-21T23:07:41.501Z,5.85
2023-05-21T23:10:10.514Z,6.65
2023-05-21T23:12:38.890Z,7.55
2023-05-21T23:15:07.948Z,5.65
2023-05-21T23:17:36.167Z,7.25
2023-05-21T23:20:07.374Z,4.18
2023-05-21T23:22:36.166Z,5.75
2023-05-21T23:25:05.088Z,4.22
2023-05-21T23:27:33.424Z,7.68
2023-05-21T23:30:01.758Z,7.03
2023-05-21T23:32:30.182Z,10.57
2023-05-21T23:34:58.436Z,6.57
2023-05-21T23:37:28.100Z,6.28
2023-05-21T23:39:56.427Z,8.68
2023-05-21T23:42:24.773Z,6.40
2023-05-21T23:44:53.036Z,10.75
2023-05-21T23:47:21.228Z,5.10
2023-05-21T23:49:49.441Z,3.78
2023-05-21T23:52:18.452Z,7.18
2023-05-21T23:54:48.262Z,9.45
2023-05-21T23:57:16.754Z,8.07
2023-05-21T23:59:45.031Z,5.82
